Terminal Aerodrome Forecast
Issued by NWS Charleston, WV

Current Version | Previous Version | Graphics & Text | Print | Product List | Glossary On
Versions: 1 2 3 4 5 6 7 8 9 10 11 12 13 14 15 16 17 18 19 20 21 22 23
000
FTUS41 KRLX 252331
TAFEKN
TAF
KEKN 252331Z 2600/2624 VRB04KT P6SM SCT040
     FM260700 00000KT 4SM BR SCT250
     FM260900 00000KT 1/4SM FG BKN001
     FM261200 00000KT 3SM BR SCT001 SCT030
     FM261300 00000KT P6SM SCT045
     FM261500 26006KT P6SM BKN045
     FM261900 28005KT P6SM VCTS BKN045CB=

USA.gov is the U.S. government's official web portal to all federal, state and local government web resources and services.